Sunday, May 24, 2015

  Over 48,494,314 pages visited!

GMT:
02:49
PACIFIC:
7:49:34 PM
MOUNTAIN:
8:49:34 PM

CENTRAL:
9:49:34 PM

EASTERN:
10:49:34 PM
ATLANTIC:
11:49:34 PM
NEWFOUNDLAND:
12:19:34 AM
 

 


Watches/Warnings
Current Conditions
Radar/Satellite
Lightning Images


Current Weather Conditions For TORONTO PEARSON,ON

 


A Few Clouds
 

Temperature: 17C / 63F
Dew Point: -1C / 30F
Humidity: 29 %
Pressure: 1024.5 mbs (30.25 inches)
Visibility: 24.1 kms (15 SM)
Wind Direction: SW (240)
Wind Speed: 20.4 Km/h (12.7 MPH)
Max Wind Gust: 29.7 Km/h (18.4 MPH)
Humidex: N/A
WindChill: N/A
    

Observation Information

Date/Time: Saturday, May 23, 2015 @ 02:00Z
Local Time:
Metar Coded: CYYZ 240200Z 24011G16KT 15SM FEW240 17/M01 A3025 RMK CI2 SLP245

 

 

                   1997-2015 The Ontario Weather Page